Archival Weather

Dane County Rgnl/Truax Fld

Madison, Wisconsin (KMSN)

Report from: Sunday, April 21, 2024 5:53 AM CDT
Current time: Tuesday, May 21, 2024 11:28 AM CDT

Current weather – Weather history – Daily summaries
Weather forecast

Temperature-0.6°C (30.9°F)
Dew point-5.0°C (23.0°F)
Winds Calm
Visibility10 mi. (16.1 km)
Clouds Few clouds 25,000 ft. (7,620 m)
Altimeter30.14 in.Hg (1021 mB)
Relative humidity72 %
Density altitude-2,127 ft. (-648 m)
Sea-level pressure102.2 kPa (1022 mB, 30.17 in.Hg)
Remarks System requires maintenance
Automated weather observing station with precipitation discriminator
Flight conditions Visual Meteorological Conditions
Raw dataKMSN 211053Z 00000KT 10SM FEW250 M01/M05 A3014 RMK AO2 SLP216 T10061050 $
An error has occurred. This application may no longer respond until reloaded. Reload 🗙